createdAt,value
2018-07-24T00:02:26.178Z,22.90
2018-07-24T00:05:59.428Z,22.90
2018-07-24T00:09:32.716Z,22.80
2018-07-24T00:13:06.060Z,22.80
2018-07-24T00:16:39.332Z,22.80
2018-07-24T00:23:45.597Z,22.70
2018-07-24T00:27:18.867Z,22.60
2018-07-24T00:30:52.129Z,22.60
2018-07-24T00:34:25.382Z,22.60
2018-07-24T00:37:58.648Z,22.50
2018-07-24T00:41:31.893Z,22.50
2018-07-24T00:45:05.140Z,22.50
2018-07-24T00:48:38.405Z,22.50
2018-07-24T00:52:11.664Z,22.50
2018-07-24T00:55:44.907Z,22.40
2018-07-24T00:59:18.148Z,22.40
2018-07-24T01:02:51.400Z,22.40
2018-07-24T01:06:24.648Z,22.40
2018-07-24T01:09:57.912Z,22.30
2018-07-24T01:13:31.168Z,22.30
2018-07-24T01:17:04.428Z,22.20
2018-07-24T01:20:37.735Z,22.10
2018-07-24T01:27:43.996Z,22.00
2018-07-24T01:31:17.653Z,22.00
2018-07-24T01:34:50.915Z,22.00
2018-07-24T01:38:24.192Z,21.90
2018-07-24T01:41:57.475Z,21.80
2018-07-24T01:45:30.749Z,21.70
2018-07-24T01:52:37.465Z,21.60
2018-07-24T01:56:10.728Z,21.50
2018-07-24T01:59:43.979Z,21.30
2018-07-24T02:03:17.261Z,21.20
2018-07-24T02:06:50.560Z,21.20
2018-07-24T02:10:23.831Z,21.10
2018-07-24T02:17:30.114Z,21.20
2018-07-24T02:21:03.380Z,21.10
2018-07-24T02:24:36.633Z,21.10
2018-07-24T02:31:43.348Z,21.00
2018-07-24T02:35:16.525Z,21.00
2018-07-24T02:38:49.814Z,21.00
2018-07-24T02:42:23.082Z,21.00
2018-07-24T02:45:56.340Z,21.00
2018-07-24T02:49:29.579Z,21.00
2018-07-24T02:53:02.845Z,20.90
2018-07-24T02:56:36.113Z,20.90
2018-07-24T03:00:09.398Z,20.90
2018-07-24T03:03:42.646Z,20.90
2018-07-24T03:07:15.898Z,20.90
2018-07-24T03:10:49.197Z,20.90
2018-07-24T03:14:22.477Z,20.80
2018-07-24T03:17:55.765Z,20.80
2018-07-24T03:21:29.049Z,20.80
2018-07-24T03:25:02.305Z,20.80
2018-07-24T03:28:35.564Z,20.80
2018-07-24T03:32:08.839Z,20.70
2018-07-24T03:35:42.105Z,20.70
2018-07-24T03:39:15.384Z,20.70
2018-07-24T03:42:48.656Z,20.70
2018-07-24T03:46:22.047Z,20.70
2018-07-24T03:53:28.328Z,20.70
2018-07-24T03:57:01.606Z,20.70
2018-07-24T04:00:34.862Z,20.70
2018-07-24T04:04:08.149Z,20.60
2018-07-24T04:11:14.419Z,20.60
2018-07-24T04:14:47.691Z,20.70
2018-07-24T04:18:20.948Z,20.70
2018-07-24T04:25:27.369Z,20.70
2018-07-24T04:29:00.616Z,20.70
2018-07-24T04:32:33.933Z,20.80
2018-07-24T04:39:40.504Z,20.90
2018-07-24T04:43:13.762Z,20.90
2018-07-24T04:46:47.096Z,21.00
2018-07-24T04:50:20.357Z,21.00
2018-07-24T04:53:53.681Z,21.00
2018-07-24T04:57:26.933Z,21.10
2018-07-24T05:01:00.196Z,21.10
2018-07-24T05:04:33.461Z,21.20
2018-07-24T05:08:06.737Z,21.30
2018-07-24T05:11:40.027Z,21.50
2018-07-24T05:15:13.380Z,21.60
2018-07-24T05:18:46.647Z,21.90
2018-07-24T05:22:19.899Z,22.30
2018-07-24T05:25:53.181Z,22.40
2018-07-24T05:29:26.438Z,22.40
2018-07-24T05:32:59.704Z,22.30
2018-07-24T05:36:33.255Z,22.50
2018-07-24T05:43:39.636Z,22.60
2018-07-24T05:47:12.941Z,22.50
2018-07-24T05:50:46.229Z,22.50
2018-07-24T05:54:19.500Z,22.50
2018-07-24T05:57:52.866Z,22.60
2018-07-24T06:01:26.106Z,22.60
2018-07-24T06:04:59.713Z,22.70
2018-07-24T06:12:06.289Z,22.80
2018-07-24T06:15:39.533Z,22.90
2018-07-24T06:19:12.839Z,22.90
2018-07-24T06:22:46.104Z,23.00
2018-07-24T06:26:19.354Z,23.10
2018-07-24T06:29:52.605Z,23.20
2018-07-24T06:33:25.866Z,23.40
2018-07-24T06:36:59.146Z,23.40
2018-07-24T06:40:32.409Z,23.50
2018-07-24T06:44:05.705Z,23.60
2018-07-24T06:47:39.044Z,23.70
2018-07-24T06:51:12.323Z,23.80
2018-07-24T06:54:45.752Z,23.90
2018-07-24T06:58:19.121Z,24.00
2018-07-24T07:01:52.384Z,24.10
2018-07-24T07:05:25.637Z,24.20
2018-07-24T07:09:06.486Z,24.40
2018-07-24T07:12:39.747Z,24.40
2018-07-24T07:16:13.014Z,24.50
2018-07-24T07:19:46.264Z,24.60
2018-07-24T07:26:52.529Z,24.80
2018-07-24T07:30:25.784Z,24.90
2018-07-24T07:33:59.069Z,25.00
2018-07-24T07:37:32.336Z,25.20
2018-07-24T07:41:05.780Z,25.20
2018-07-24T07:44:39.038Z,25.40
2018-07-24T07:48:12.321Z,25.50
2018-07-24T07:51:45.589Z,25.60
2018-07-24T07:55:18.837Z,25.70
2018-07-24T07:58:52.186Z,25.90
2018-07-24T08:02:25.462Z,26.10
2018-07-24T08:05:58.692Z,26.20
2018-07-24T08:09:31.951Z,26.30
2018-07-24T08:13:05.294Z,26.40
2018-07-24T08:16:38.567Z,26.60
2018-07-24T08:23:44.910Z,26.80
2018-07-24T08:27:18.184Z,26.90
2018-07-24T08:30:51.477Z,27.10
2018-07-24T08:34:24.736Z,27.20
2018-07-24T08:37:58.013Z,27.30
2018-07-24T08:41:31.289Z,27.50
2018-07-24T08:45:04.920Z,27.60
2018-07-24T08:48:38.189Z,27.70
2018-07-24T08:52:11.450Z,27.80
2018-07-24T08:55:45.020Z,27.90
2018-07-24T08:59:17.984Z,28.00
2018-07-24T09:02:51.249Z,28.20
2018-07-24T09:06:24.516Z,28.30
2018-07-24T09:09:57.787Z,28.30
2018-07-24T09:13:31.051Z,28.40
2018-07-24T09:17:04.316Z,28.50
2018-07-24T09:20:37.618Z,28.60
2018-07-24T09:24:11.004Z,28.70
2018-07-24T09:27:44.254Z,28.80
2018-07-24T09:31:17.524Z,28.90
2018-07-24T09:34:50.766Z,28.90
2018-07-24T09:38:24.029Z,29.00
2018-07-24T09:41:57.314Z,29.10
2018-07-24T09:45:30.582Z,29.20
2018-07-24T09:52:36.985Z,29.20
2018-07-24T09:56:10.279Z,29.30
2018-07-24T10:03:16.545Z,29.40
2018-07-24T10:06:49.808Z,29.40
2018-07-24T10:10:23.056Z,29.50
2018-07-24T10:13:56.429Z,29.50
2018-07-24T10:17:29.706Z,29.60
2018-07-24T10:21:03.024Z,29.70
2018-07-24T10:24:36.269Z,29.70
2018-07-24T10:28:09.539Z,29.70
2018-07-24T10:31:42.802Z,29.80
2018-07-24T10:35:16.268Z,29.80
2018-07-24T10:38:49.529Z,29.90
2018-07-24T10:42:22.796Z,30.00
2018-07-24T10:45:56.068Z,30.10
2018-07-24T10:49:29.354Z,30.10
2018-07-24T10:53:02.665Z,30.20
2018-07-24T10:56:35.917Z,30.20
2018-07-24T11:00:09.276Z,30.20
2018-07-24T11:03:42.548Z,30.30
2018-07-24T11:07:15.821Z,30.40
2018-07-24T11:10:49.136Z,30.50
2018-07-24T11:14:22.328Z,30.50
2018-07-24T11:17:55.621Z,30.60
2018-07-24T11:21:28.890Z,30.60
2018-07-24T11:28:35.194Z,30.70
2018-07-24T11:32:08.465Z,30.80
2018-07-24T11:35:41.788Z,30.80
2018-07-24T11:39:15.036Z,30.80
2018-07-24T11:42:48.312Z,30.70
2018-07-24T11:46:21.553Z,30.60
2018-07-24T11:49:54.816Z,30.70
2018-07-24T11:53:28.081Z,30.70
2018-07-24T11:57:01.445Z,30.60
2018-07-24T12:00:34.712Z,30.50
2018-07-24T12:04:07.982Z,30.60
2018-07-24T12:07:41.279Z,30.60
2018-07-24T12:11:14.575Z,30.60
2018-07-24T12:14:47.819Z,30.70
2018-07-24T12:18:21.137Z,30.60
2018-07-24T12:21:54.449Z,30.60
2018-07-24T12:25:27.692Z,30.60
2018-07-24T12:29:00.958Z,30.60
2018-07-24T12:32:34.269Z,30.60
2018-07-24T12:36:07.597Z,30.60
2018-07-24T12:39:40.801Z,30.50
2018-07-24T12:43:14.076Z,30.60
2018-07-24T12:46:47.354Z,30.60
2018-07-24T12:50:20.614Z,30.60
2018-07-24T12:53:53.881Z,30.50
2018-07-24T12:57:27.143Z,30.40
2018-07-24T13:01:00.436Z,30.40
2018-07-24T13:04:33.760Z,30.30
2018-07-24T13:08:07.011Z,30.20
2018-07-24T13:11:40.299Z,30.30
2018-07-24T13:15:13.550Z,30.30
2018-07-24T13:18:46.826Z,30.40
2018-07-24T13:22:20.102Z,30.50
2018-07-24T13:29:26.424Z,30.90
2018-07-24T13:32:59.681Z,31.00
2018-07-24T13:36:32.948Z,31.10
2018-07-24T13:40:06.228Z,31.10
2018-07-24T13:43:39.469Z,31.30
2018-07-24T13:47:12.743Z,31.50
2018-07-24T13:50:46.007Z,31.80
2018-07-24T13:54:19.478Z,32.10
2018-07-24T13:57:52.772Z,32.40
2018-07-24T14:01:26.030Z,32.60
2018-07-24T14:04:59.277Z,32.80
2018-07-24T14:08:32.549Z,33.00
2018-07-24T14:12:05.822Z,32.90
2018-07-24T14:15:39.097Z,32.80
2018-07-24T14:29:51.346Z,33.00
2018-07-24T14:33:24.609Z,33.10
2018-07-24T14:36:57.877Z,33.20
2018-07-24T14:40:31.198Z,33.20
2018-07-24T14:47:37.469Z,33.50
2018-07-24T14:51:10.738Z,33.70
2018-07-24T14:54:43.981Z,34.00
2018-07-24T14:58:17.237Z,34.10
2018-07-24T15:01:50.564Z,34.30
2018-07-24T15:05:23.869Z,34.40
2018-07-24T15:08:57.214Z,34.60
2018-07-24T15:12:30.472Z,34.80
2018-07-24T15:16:04.726Z,35.10
2018-07-24T15:19:37.976Z,35.40
2018-07-24T15:23:11.250Z,35.60
2018-07-24T15:26:44.561Z,35.80
2018-07-24T15:33:50.889Z,35.90
2018-07-24T15:37:24.145Z,36.00
2018-07-24T15:40:57.424Z,36.00
2018-07-24T15:44:30.694Z,36.00
2018-07-24T15:48:03.937Z,36.00
2018-07-24T15:51:37.251Z,36.20
2018-07-24T15:55:10.479Z,36.20
2018-07-24T15:58:43.773Z,36.40
2018-07-24T16:02:17.013Z,36.50
2018-07-24T16:09:23.349Z,36.50
2018-07-24T16:12:56.602Z,36.60
2018-07-24T16:16:29.862Z,36.70
2018-07-24T16:20:03.225Z,36.80
2018-07-24T16:23:36.564Z,36.80
2018-07-24T16:27:09.806Z,36.80
2018-07-24T16:30:43.088Z,36.80
2018-07-24T16:34:16.349Z,36.80
2018-07-24T16:37:49.593Z,36.40
2018-07-24T16:41:22.866Z,36.00
2018-07-24T16:44:56.129Z,35.40
2018-07-24T16:48:29.383Z,34.80
2018-07-24T16:52:02.669Z,34.30
2018-07-24T16:55:35.935Z,33.90
2018-07-24T16:59:09.209Z,33.50
2018-07-24T17:02:42.531Z,33.20
2018-07-24T17:06:15.761Z,33.00
2018-07-24T17:09:49.026Z,32.70
2018-07-24T17:13:22.310Z,32.50
2018-07-24T17:16:55.553Z,32.30
2018-07-24T17:20:28.837Z,32.20
2018-07-24T17:24:02.105Z,32.00
2018-07-24T17:27:35.429Z,31.90
2018-07-24T17:34:41.850Z,31.70
2018-07-24T17:38:15.106Z,31.60
2018-07-24T17:41:48.419Z,31.40
2018-07-24T17:45:21.625Z,31.20
2018-07-24T17:48:54.931Z,31.10
2018-07-24T17:52:28.181Z,31.00
2018-07-24T17:56:01.470Z,30.90
2018-07-24T17:59:34.728Z,30.80
2018-07-24T18:03:07.993Z,30.70
2018-07-24T18:06:41.323Z,30.70
2018-07-24T18:10:14.754Z,30.60
2018-07-24T18:13:48.062Z,30.60
2018-07-24T18:17:21.294Z,30.50
2018-07-24T18:20:54.544Z,30.40
2018-07-24T18:24:27.796Z,30.40
2018-07-24T18:28:01.030Z,30.30
2018-07-24T18:35:07.781Z,30.10
2018-07-24T18:38:41.221Z,30.00
2018-07-24T18:42:14.418Z,29.90
2018-07-24T18:45:47.673Z,29.90
2018-07-24T18:49:20.944Z,29.90
2018-07-24T18:52:54.182Z,29.80
2018-07-24T18:56:27.447Z,29.80
2018-07-24T19:00:01.567Z,29.70
2018-07-24T19:03:34.877Z,29.70
2018-07-24T19:07:08.140Z,29.60
2018-07-24T19:10:41.435Z,29.50
2018-07-24T19:14:14.699Z,29.40
2018-07-24T19:17:47.953Z,29.30
2018-07-24T19:24:54.207Z,29.10
2018-07-24T19:28:27.487Z,29.00
2018-07-24T19:32:00.762Z,28.90
2018-07-24T19:35:34.009Z,28.80
2018-07-24T19:39:09.254Z,28.80
2018-07-24T19:42:42.520Z,28.70
2018-07-24T19:46:15.777Z,28.60
2018-07-24T19:49:49.095Z,28.50
2018-07-24T19:53:22.300Z,28.40
2018-07-24T19:56:55.579Z,28.30
2018-07-24T20:00:28.845Z,28.20
2018-07-24T20:04:02.129Z,28.20
2018-07-24T20:07:35.391Z,28.10
2018-07-24T20:11:10.167Z,28.00
2018-07-24T20:14:43.501Z,27.90
2018-07-24T20:18:16.828Z,27.80
2018-07-24T20:21:50.108Z,27.70
2018-07-24T20:25:23.377Z,27.70
2018-07-24T20:28:56.651Z,27.60
2018-07-24T20:32:29.908Z,27.50
2018-07-24T20:36:03.190Z,27.40
2018-07-24T20:39:36.489Z,27.40
2018-07-24T20:43:09.881Z,27.30
2018-07-24T20:46:43.250Z,27.30
2018-07-24T20:50:16.577Z,27.20
2018-07-24T20:53:53.972Z,27.10
2018-07-24T20:57:27.296Z,27.10
2018-07-24T21:01:00.584Z,27.10
2018-07-24T21:04:34.049Z,27.00
2018-07-24T21:08:07.349Z,27.00
2018-07-24T21:11:40.677Z,26.90
2018-07-24T21:15:13.977Z,26.90
2018-07-24T21:18:47.589Z,26.80
2018-07-24T21:22:20.840Z,26.70
2018-07-24T21:25:54.088Z,26.60
2018-07-24T21:29:27.332Z,26.50
2018-07-24T21:33:00.571Z,26.40
2018-07-24T21:36:33.838Z,26.30
2018-07-24T21:40:07.085Z,26.20
2018-07-24T21:43:40.353Z,26.10
2018-07-24T21:47:13.733Z,26.10
2018-07-24T21:50:47.000Z,26.00
2018-07-24T21:54:20.261Z,25.90
2018-07-24T21:57:53.601Z,25.90
2018-07-24T22:01:26.893Z,25.80
2018-07-24T22:05:00.130Z,25.70
2018-07-24T22:08:33.465Z,25.60
2018-07-24T22:12:06.723Z,25.50
2018-07-24T22:15:39.981Z,25.50
2018-07-24T22:19:13.293Z,25.40
2018-07-24T22:22:46.525Z,25.40
2018-07-24T22:26:19.788Z,25.30
2018-07-24T22:29:53.049Z,25.20
2018-07-24T22:33:26.306Z,25.10
2018-07-24T22:36:59.570Z,25.00
2018-07-24T22:40:32.825Z,25.00
2018-07-24T22:44:06.080Z,24.90
2018-07-24T22:47:39.316Z,24.90
2018-07-24T22:51:12.580Z,24.80
2018-07-24T22:54:45.837Z,24.70
2018-07-24T22:58:19.100Z,24.70
2018-07-24T23:01:52.411Z,24.60
2018-07-24T23:05:25.757Z,24.50
2018-07-24T23:08:59.396Z,24.50
2018-07-24T23:16:05.685Z,24.50
2018-07-24T23:23:12.334Z,24.40
2018-07-24T23:26:45.963Z,24.40
2018-07-24T23:30:19.253Z,24.30
2018-07-24T23:33:52.508Z,24.30
2018-07-24T23:37:25.757Z,24.30
2018-07-24T23:40:59.039Z,24.10
2018-07-24T23:44:32.397Z,24.10
2018-07-24T23:48:05.645Z,24.00
2018-07-24T23:51:38.898Z,24.00
